Grefrath-Niershorst Airport

EDLF · North Rhine-Westphalia, 德国

2022年11月29日 13:002022年11月29日 22:00有效
时间
星期二
13:00
>40%
星期二
14:00
>40%
星期二
15:00
>40%
星期二
16:00
>40%
星期二
17:00
>40%
星期二
18:00
>40%
星期二
19:00
>40%
星期二
20:00
>40%
星期二
21:00
>40%
代码
LIFR
LIFR
LIFR
LIFR
LIFR
LIFR
LIFR
LIFR
LIFR
天气
薄雾
薄雾
薄雾
薄雾
薄雾
薄雾
薄雾
薄雾
薄雾
薄雾
薄雾
薄雾
薄雾
薄雾
薄雾
薄雾
薄雾
薄雾
能见度
2 km
2 km
2 km
2 km
2 km
2 km
2 km
2 km
2 km
天花板
300 ft
300 ft
300 ft
300 ft
300 ft
300 ft
300 ft
300 ft
300 ft
300°
300°
300°
300°
300°
300°
300°
300°
300°
300°
300°
300°
300°
300°
300°
300°
300°
300°
速度
4 kt
4 kt
4 kt
4 kt
4 kt
4 kt
4 kt
4 kt
4 kt
阵风
温度/星期日
16:31

原版的

TAF EDLN 291100Z 2912/2921 30004KT 4000 BR OVC005
TEMPO 2912/2921 2000 BKN003

TAF Grefrath-Niershorst Airport

Grefrath-Niershorst Airport是,德国中的小机场。 该机场有一条跑道: 7/25. 该领域的国际民航组织标志是EDLF.

这份报告是针对2022年11月29日 12:00, 当地时间在Mönchengladbach Airport进行的。 从2022年11月29日 13:00到2022年11月29日 22:00, 当地时间有效.

预报

  • 在星期二 13:00和22:00之间

    • 风: 风来自300°方向,速度为4 kt。
    • 能见度: 4 km
    • 天气: 薄雾
    • 乌云: 乌云密布在500 ft的高度.

  • 暂时在星期二 13:00和22:00之间

    • 能见度: 2 km
    • 乌云: 碎云在300 ft的高度.

白天

今天,太阳从08:14升起,在16:31降落。 这适用于Grefrath-Niershorst Airport,世界夏令时可能有所不同。 当地时间与世界标准时间之间的时差为+1 小时。 当前,没有夏令时有效。

我们和第三方通过cookies跟踪您在我们网站上的互联网行为。如果你继续,我们认为你同意我们的饼干政策